This is the latest recevied weather packets stored in our database for station/object K1WJY. If no packets are shown the sender has not sent any weather packets the latest 10 day(s).
| Time | Temp. | Humidity | Pressure | Rain* | Wind** | Luminosity | Snow |
|---|---|---|---|---|---|---|---|
| 1787836898 | 20° C | 94% | 1021.7 hPa | 0 mm | - | 232 W/m² | - |
| 1787836594 | 20° C | 94% | 1021.6 hPa | 0 mm | - | 155 W/m² | - |
| 1787836293 | 20.56° C | 93% | 1021.7 hPa | 0 mm | - | 149 W/m² | - |
| 1787835989 | 20.56° C | 92% | 1021.4 hPa | 0 mm | - | 144 W/m² | - |
| 1787835685 | 21.11° C | 91% | 1021.6 hPa | 0 mm | - | 207 W/m² | - |
| 1787835380 | 20.56° C | 92% | 1021.7 hPa | 0 mm | - | 391 W/m² | - |
| 1787835075 | 20.56° C | 91% | 1021.5 hPa | 0 mm | - | 410 W/m² | - |
| 1787834773 | 20.56° C | 91% | 1021.5 hPa | 0 mm | - | 404 W/m² | - |
| 1787834469 | 20.56° C | 90% | 1021.5 hPa | 0 mm | - | 324 W/m² | - |
| 1787834164 | 20° C | 91% | 1021.6 hPa | 0 mm | - | 288 W/m² | - |
| 1787833860 | 20° C | 92% | 1021.6 hPa | 0 mm | - | 226 W/m² | - |
| 1787833554 | 20° C | 91% | 1021.7 hPa | 0 mm | - | 247 W/m² | - |
| 1787833250 | 20° C | 91% | 1022 hPa | 0 mm | - | 218 W/m² | - |
| 1787832945 | 20° C | 89% | 1021.8 hPa | 0 mm | - | 206 W/m² | - |
| 1787832642 | 19.44° C | 91% | 1021.8 hPa | 0 mm | - | 269 W/m² | - |
| 1787832340 | 18.89° C | 91% | 1021.8 hPa | 0 mm | - | 137 W/m² | - |
| 1787832040 | 18.89° C | 91% | 1021.5 hPa | 0 mm | - | 122 W/m² | - |
| 1787831733 | 18.33° C | 91% | 1021.7 hPa | 0 mm | - | 122 W/m² | - |
| 1787831432 | 18.33° C | 91% | 1021.6 hPa | 0 mm | - | 80 W/m² | - |
| 1787831131 | 17.22° C | 93% | 1021.6 hPa | 0 mm | - | 99 W/m² | - |
| 1787830828 | 16.67° C | 95% | 1021.7 hPa | 0 mm | - | 89 W/m² | - |
| 1787830527 | 16.11° C | 99% | 1021.5 hPa | 0 mm | - | 84 W/m² | - |
| 1787830222 | 15.56° C | 99% | 1021.6 hPa | 0 mm | - | 80 W/m² | - |
| 1787829922 | 15° C | 99% | 1021.6 hPa | 0 mm | - | 78 W/m² | - |
| 1787829621 | 14.44° C | 99% | 1021.5 hPa | 0 mm | - | 71 W/m² | - |
* Rain latest hour (hover to see other rain measurements)
** Current wind speed in m/s (hover to see current wind gust speed)